Time;durP1;ratioP1;P1;durP2;ratioP2;P2;SDS_P1;SDS_P2;PMS_P1;PMS_P2;Temp;Humidity;BMP_temperature;BMP_pressure;BME280_temperature;BME280_humidity;BME280_pressure;Samples;Min_cycle;Max_cycle;Signal;HPM_P1;HPM_P2
2023/07/28 00:02:21;;;;;;;8.23;7.50;;;16.60;99.90;;;;;;4961011;28;20470;-70
2023/07/28 00:04:49;;;;;;;8.53;7.63;;;16.60;99.90;;;;;;4961777;29;20495;-64
2023/07/28 00:07:19;;;;;;;8.60;7.90;;;16.60;99.90;;;;;;4961493;29;20446;-69
2023/07/28 00:09:47;;;;;;;8.87;8.07;;;16.50;99.90;;;;;;4961025;29;20513;-68
2023/07/28 00:12:14;;;;;;;11.83;8.70;;;16.60;99.90;;;;;;4960453;29;20518;-69
2023/07/28 00:14:41;;;;;;;9.03;8.27;;;16.60;99.90;;;;;;4960776;29;20468;-68
2023/07/28 00:17:08;;;;;;;9.83;9.03;;;16.60;99.90;;;;;;4960645;29;20496;-70
2023/07/28 00:19:36;;;;;;;9.60;8.80;;;16.60;99.90;;;;;;4960704;29;20891;-69
2023/07/28 00:22:03;;;;;;;9.37;8.47;;;16.60;99.90;;;;;;4960253;29;20467;-70
2023/07/28 00:24:31;;;;;;;8.47;7.67;;;16.60;99.90;;;;;;4960633;29;20943;-70
2023/07/28 00:26:58;;;;;;;8.63;7.83;;;16.60;99.90;;;;;;4960383;29;20474;-68
2023/07/28 00:29:25;;;;;;;9.10;8.27;;;16.60;99.90;;;;;;4960545;29;20466;-67
2023/07/28 00:31:53;;;;;;;9.07;8.23;;;16.60;99.90;;;;;;4960159;28;20467;-67
2023/07/28 00:34:20;;;;;;;9.37;8.57;;;16.60;99.90;;;;;;4959821;29;20444;-69
2023/07/28 00:36:47;;;;;;;9.10;8.30;;;16.60;99.90;;;;;;4959447;28;20884;-69
2023/07/28 00:39:14;;;;;;;8.90;8.20;;;16.60;99.90;;;;;;4960632;29;20477;-70
2023/07/28 00:41:43;;;;;;;7.73;7.13;;;16.60;99.90;;;;;;4960340;29;20441;-71
2023/07/28 00:44:10;;;;;;;7.90;7.20;;;16.60;99.90;;;;;;4960097;29;20501;-70
2023/07/28 00:46:38;;;;;;;7.83;7.20;;;16.60;99.90;;;;;;4960263;29;20844;-71
2023/07/28 00:49:05;;;;;;;7.17;6.57;;;16.50;99.90;;;;;;4960100;29;20477;-69
2023/07/28 00:51:32;;;;;;;7.57;6.90;;;16.60;99.90;;;;;;4960930;29;20470;-69
2023/07/28 00:54:01;;;;;;;6.57;5.93;;;16.60;99.90;;;;;;4960175;29;20471;-70
2023/07/28 00:56:29;;;;;;;6.57;6.00;;;16.60;99.90;;;;;;4960327;28;20537;-70
2023/07/28 00:58:58;;;;;;;6.80;6.20;;;16.50;99.90;;;;;;4959986;28;20467;-66
2023/07/28 01:01:27;;;;;;;6.97;6.43;;;16.60;99.90;;;;;;4961725;29;20474;-68
2023/07/28 01:03:54;;;;;;;7.10;6.33;;;16.60;99.90;;;;;;4960183;29;20507;-70
2023/07/28 01:06:30;;;;;;;8.00;6.63;;;16.60;99.90;;;;;;4960301;28;20466;-67
2023/07/28 01:09:03;;;;;;;6.47;5.87;;;16.60;99.90;;;;;;4962053;29;20472;-70
2023/07/28 01:11:30;;;;;;;7.80;7.10;;;16.60;99.90;;;;;;4960800;29;20467;-69
2023/07/28 01:13:59;;;;;;;7.73;6.77;;;16.60;99.90;;;;;;4958334;29;21135;-68
2023/07/28 01:16:26;;;;;;;6.37;5.87;;;16.60;99.90;;;;;;4959577;29;20442;-64
2023/07/28 01:18:53;;;;;;;7.10;6.10;;;16.60;99.90;;;;;;4959610;29;20498;-68
2023/07/28 01:21:25;;;;;;;6.60;5.90;;;16.60;99.90;;;;;;4957463;29;20485;-68
2023/07/28 01:24:02;;;;;;;5.70;4.90;;;16.60;99.90;;;;;;4959299;28;20474;-67
2023/07/28 01:26:34;;;;;;;4.80;4.40;;;16.60;99.90;;;;;;4961344;28;20839;-67
2023/07/28 01:29:02;;;;;;;6.27;4.60;;;16.60;99.90;;;;;;4958819;29;20437;-68
2023/07/28 01:31:30;;;;;;;5.27;4.77;;;16.60;99.90;;;;;;4961650;29;20469;-68
2023/07/28 01:33:57;;;;;;;4.33;3.93;;;16.60;99.90;;;;;;4961204;29;20448;-67
2023/07/28 01:36:24;;;;;;;4.63;4.10;;;16.60;99.90;;;;;;4961786;29;20818;-64
2023/07/28 01:38:51;;;;;;;5.30;4.80;;;16.60;99.90;;;;;;4960171;29;20470;-67
2023/07/28 01:41:18;;;;;;;5.87;4.80;;;16.60;99.90;;;;;;4960047;29;20467;-69
2023/07/28 01:43:47;;;;;;;5.30;4.80;;;16.60;99.90;;;;;;4959684;29;20470;-69
2023/07/28 01:46:14;;;;;;;4.57;4.17;;;16.60;99.90;;;;;;4958946;29;20495;-69
2023/07/28 01:48:41;;;;;;;4.87;4.47;;;16.60;99.90;;;;;;4959019;29;20445;-69
2023/07/28 01:51:08;;;;;;;4.73;4.33;;;16.60;99.90;;;;;;4959081;29;20453;-70
2023/07/28 01:53:35;;;;;;;5.70;5.20;;;16.60;99.90;;;;;;4959343;29;20467;-68
2023/07/28 01:56:02;;;;;;;5.30;4.77;;;16.60;99.90;;;;;;4959237;29;20730;-68
2023/07/28 01:58:29;;;;;;;4.40;4.00;;;16.60;99.90;;;;;;4959004;29;20922;-69
2023/07/28 02:00:58;;;;;;;5.57;4.47;;;16.60;99.90;;;;;;4959325;29;20470;-67
2023/07/28 02:03:25;;;;;;;4.90;4.10;;;16.60;99.90;;;;;;4959475;28;20553;-68
2023/07/28 02:05:53;;;;;;;6.77;3.87;;;16.60;99.90;;;;;;4958729;29;20469;-69
2023/07/28 02:08:20;;;;;;;5.03;4.00;;;16.60;99.90;;;;;;4958842;29;20445;-69
2023/07/28 02:10:47;;;;;;;3.93;2.97;;;16.70;99.90;;;;;;4960930;29;20564;-68
2023/07/28 02:13:14;;;;;;;3.40;3.00;;;16.60;99.90;;;;;;4959411;28;20495;-70
2023/07/28 02:15:42;;;;;;;3.33;3.03;;;16.60;99.90;;;;;;4959718;28;20764;-69
2023/07/28 02:18:10;;;;;;;4.00;2.40;;;16.70;99.90;;;;;;4959166;29;20954;-70
2023/07/28 02:20:38;;;;;;;3.07;2.77;;;16.70;99.90;;;;;;4960625;29;20770;-69
2023/07/28 02:23:06;;;;;;;2.53;2.33;;;16.60;99.90;;;;;;4961597;29;20475;-68
2023/07/28 02:25:33;;;;;;;2.60;2.23;;;16.70;99.90;;;;;;4962012;28;20503;-68
2023/07/28 02:28:00;;;;;;;3.50;3.00;;;16.60;99.90;;;;;;4961441;28;20761;-69
2023/07/28 02:30:27;;;;;;;3.50;3.20;;;16.60;99.90;;;;;;4959302;29;20467;-70
2023/07/28 02:32:54;;;;;;;3.67;2.80;;;16.60;99.90;;;;;;4959489;29;20462;-70
2023/07/28 02:35:22;;;;;;;3.00;2.57;;;16.70;99.90;;;;;;4960803;29;20747;-69
2023/07/28 02:37:50;;;;;;;4.50;1.80;;;16.70;99.90;;;;;;4961392;28;20557;-69
2023/07/28 02:40:17;;;;;;;2.73;2.03;;;16.70;99.90;;;;;;4960133;28;20475;-68
2023/07/28 02:42:44;;;;;;;2.50;2.30;;;16.70;99.90;;;;;;4960276;29;20453;-68
2023/07/28 02:45:12;;;;;;;4.20;2.83;;;16.80;99.90;;;;;;4958617;29;20556;-68
2023/07/28 02:47:39;;;;;;;4.37;2.50;;;16.70;99.90;;;;;;4960137;29;20467;-68
2023/07/28 02:50:07;;;;;;;3.70;2.43;;;16.70;99.90;;;;;;4959870;28;20482;-68
2023/07/28 02:52:35;;;;;;;2.60;2.40;;;16.70;99.90;;;;;;4961528;29;20513;-67
2023/07/28 02:55:02;;;;;;;3.00;2.70;;;16.70;99.90;;;;;;4962778;28;20455;-67
2023/07/28 02:57:29;;;;;;;2.90;2.37;;;16.80;99.90;;;;;;4962830;29;20437;-66
2023/07/28 02:59:57;;;;;;;2.97;2.40;;;16.80;99.90;;;;;;4966192;28;20463;-66
2023/07/28 03:02:24;;;;;;;3.07;2.17;;;16.70;99.90;;;;;;4966624;28;20543;-67
2023/07/28 03:04:51;;;;;;;2.40;2.10;;;16.70;99.90;;;;;;4963774;29;20935;-67
2023/07/28 03:07:18;;;;;;;2.50;1.93;;;16.70;99.90;;;;;;4963311;29;20485;-67
2023/07/28 03:09:47;;;;;;;2.70;2.30;;;16.70;99.90;;;;;;4962901;28;20485;-66
2023/07/28 03:12:14;;;;;;;2.63;1.67;;;16.70;99.90;;;;;;4961420;28;20466;-68
2023/07/28 03:14:41;;;;;;;2.10;1.60;;;16.70;99.90;;;;;;4961271;29;20472;-68
2023/07/28 03:17:08;;;;;;;2.30;2.00;;;16.70;99.90;;;;;;4961085;29;20476;-67
2023/07/28 03:19:35;;;;;;;2.53;1.80;;;16.80;99.90;;;;;;4961437;28;20878;-68
2023/07/28 03:22:02;;;;;;;3.17;2.33;;;16.80;99.90;;;;;;4960894;28;20441;-67
2023/07/28 03:24:30;;;;;;;5.03;1.80;;;16.80;99.90;;;;;;4962045;29;20786;-67
2023/07/28 03:26:58;;;;;;;2.40;1.70;;;16.80;99.90;;;;;;4962079;28;20526;-67
2023/07/28 03:29:25;;;;;;;2.10;1.53;;;16.80;99.90;;;;;;4965530;28;20872;-66
2023/07/28 03:31:52;;;;;;;3.80;1.80;;;16.80;99.90;;;;;;4965911;28;20475;-66
2023/07/28 03:34:19;;;;;;;2.30;1.80;;;16.70;99.90;;;;;;4966788;28;20536;-67
2023/07/28 03:36:47;;;;;;;2.20;1.53;;;16.70;99.90;;;;;;4964205;28;20467;-68
2023/07/28 03:39:14;;;;;;;2.10;1.40;;;16.80;99.90;;;;;;4961762;29;20870;-68
2023/07/28 03:41:41;;;;;;;2.70;1.70;;;16.80;99.90;;;;;;4961203;29;20467;-70
2023/07/28 03:44:10;;;;;;;2.03;1.63;;;16.80;99.90;;;;;;4961119;29;20448;-70
2023/07/28 03:46:37;;;;;;;2.10;1.63;;;16.80;99.90;;;;;;4960454;29;20534;-69
2023/07/28 03:49:04;;;;;;;2.70;1.93;;;16.80;99.90;;;;;;4962461;29;20474;-68
2023/07/28 03:51:31;;;;;;;2.03;1.47;;;16.80;99.90;;;;;;4964459;29;20776;-68
2023/07/28 03:53:58;;;;;;;2.97;1.80;;;16.80;99.90;;;;;;4967002;29;20463;-68
2023/07/28 03:56:27;;;;;;;2.60;1.90;;;16.80;99.90;;;;;;4960890;29;20911;-68
2023/07/28 03:58:55;;;;;;;2.10;1.60;;;16.90;99.90;;;;;;4961204;28;20471;-68
2023/07/28 04:01:24;;;;;;;2.33;2.00;;;16.90;99.90;;;;;;4961195;28;20756;-67
2023/07/28 04:03:51;;;;;;;3.80;1.80;;;16.90;99.90;;;;;;4961057;29;20872;-68
2023/07/28 04:06:18;;;;;;;2.27;1.80;;;16.90;99.90;;;;;;4961260;29;20505;-67
2023/07/28 04:08:45;;;;;;;3.73;1.93;;;16.90;99.90;;;;;;4960711;29;20466;-68
2023/07/28 04:11:12;;;;;;;2.83;1.83;;;16.80;99.90;;;;;;4961251;28;20471;-68
2023/07/28 04:13:39;;;;;;;2.27;2.00;;;16.90;99.90;;;;;;4962128;28;20473;-68
2023/07/28 04:16:06;;;;;;;2.50;2.10;;;16.90;99.90;;;;;;4961379;29;20463;-67
2023/07/28 04:18:35;;;;;;;2.40;1.63;;;16.90;99.90;;;;;;4961443;29;20823;-68
2023/07/28 04:21:02;;;;;;;2.70;2.07;;;16.90;99.90;;;;;;4960692;29;20842;-68
2023/07/28 04:23:29;;;;;;;2.70;1.73;;;16.90;99.90;;;;;;4961765;29;20459;-67
2023/07/28 04:25:57;;;;;;;3.40;2.00;;;16.90;99.90;;;;;;4960962;28;20473;-68
2023/07/28 04:28:24;;;;;;;2.50;1.87;;;16.90;99.90;;;;;;4960491;29;20888;-69
2023/07/28 04:30:52;;;;;;;2.70;1.90;;;17.00;99.90;;;;;;4960741;29;20506;-69
2023/07/28 04:33:19;;;;;;;3.00;2.30;;;17.00;99.90;;;;;;4961000;29;20536;-68
2023/07/28 04:35:47;;;;;;;4.03;1.80;;;17.00;99.90;;;;;;4964721;28;20818;-69
2023/07/28 04:38:14;;;;;;;2.30;1.87;;;17.00;99.90;;;;;;4967750;28;20468;-68
2023/07/28 04:40:42;;;;;;;2.97;1.80;;;17.00;99.90;;;;;;4979354;28;20472;-68
2023/07/28 04:43:09;;;;;;;2.87;1.93;;;17.00;99.90;;;;;;4979553;28;20436;-68
2023/07/28 04:45:36;;;;;;;2.40;2.13;;;17.10;99.90;;;;;;4979483;28;20490;-68
2023/07/28 04:48:04;;;;;;;3.50;1.77;;;17.10;99.90;;;;;;4979296;28;20472;-69
2023/07/28 04:50:32;;;;;;;2.57;2.10;;;17.10;99.90;;;;;;4979535;28;20470;-68
2023/07/28 04:53:01;;;;;;;2.20;1.60;;;17.10;99.90;;;;;;4979158;28;20466;-68
2023/07/28 04:55:28;;;;;;;2.67;1.70;;;17.10;99.90;;;;;;4979596;28;20472;-68
2023/07/28 04:57:56;;;;;;;2.40;1.87;;;17.20;99.90;;;;;;4978969;28;20466;-68
2023/07/28 05:00:23;;;;;;;2.20;1.80;;;17.20;99.90;;;;;;4979365;28;20879;-67
2023/07/28 05:02:50;;;;;;;2.40;2.00;;;17.20;99.90;;;;;;4978952;28;20474;-68
2023/07/28 05:05:18;;;;;;;2.10;1.40;;;17.20;99.90;;;;;;4971797;28;20461;-68
2023/07/28 05:07:45;;;;;;;3.13;1.80;;;17.30;99.90;;;;;;4959701;29;20466;-68
2023/07/28 05:10:15;;;;;;;2.70;1.90;;;17.30;99.90;;;;;;4958854;28;20507;-67
2023/07/28 05:12:42;;;;;;;2.10;1.63;;;17.30;99.90;;;;;;4958192;29;20744;-68
2023/07/28 05:15:11;;;;;;;2.70;1.77;;;17.30;99.90;;;;;;4959734;29;20498;-68
2023/07/28 05:17:38;;;;;;;3.23;1.70;;;17.30;99.90;;;;;;4959174;28;20495;-68
2023/07/28 05:20:06;;;;;;;2.50;1.90;;;17.30;99.90;;;;;;4959279;29;20473;-67
2023/07/28 05:22:33;;;;;;;2.40;1.70;;;17.30;99.90;;;;;;4958964;28;20471;-68
2023/07/28 05:25:01;;;;;;;2.53;2.10;;;17.30;99.90;;;;;;4959646;29;20772;-68
2023/07/28 05:27:29;;;;;;;4.00;1.87;;;17.50;99.90;;;;;;4959699;28;20559;-68
2023/07/28 05:29:57;;;;;;;2.30;1.70;;;17.40;99.90;;;;;;4959299;29;20780;-68
2023/07/28 05:32:27;;;;;;;3.17;2.17;;;17.50;99.90;;;;;;4959506;29;20820;-68
2023/07/28 05:34:54;;;;;;;2.57;1.97;;;17.50;99.90;;;;;;4958326;28;20481;-68
2023/07/28 05:37:21;;;;;;;6.10;2.57;;;17.40;99.90;;;;;;4959294;29;20459;-65
2023/07/28 05:39:48;;;;;;;4.87;2.73;;;17.50;99.90;;;;;;4958934;29;20462;-64
2023/07/28 05:42:15;;;;;;;2.77;2.43;;;17.50;99.90;;;;;;4958125;29;20561;-64
2023/07/28 05:44:44;;;;;;;7.73;2.70;;;17.50;99.90;;;;;;4957647;29;20470;-64
2023/07/28 05:47:11;;;;;;;2.90;2.60;;;17.50;99.90;;;;;;4956670;29;20494;-65
2023/07/28 05:49:38;;;;;;;3.33;2.93;;;17.40;99.90;;;;;;4956442;29;20572;-64
2023/07/28 05:52:06;;;;;;;5.70;2.80;;;17.60;99.90;;;;;;4957199;29;20466;-63
2023/07/28 05:54:33;;;;;;;3.47;2.93;;;17.50;99.90;;;;;;4958326;28;20589;-66
2023/07/28 05:57:00;;;;;;;3.97;3.60;;;17.50;99.90;;;;;;4958056;29;20498;-66
2023/07/28 05:59:27;;;;;;;5.23;4.73;;;17.60;99.90;;;;;;4959335;29;20471;-67
2023/07/28 06:01:56;;;;;;;5.20;4.30;;;17.70;99.90;;;;;;4959716;29;20714;-66
2023/07/28 06:04:23;;;;;;;5.50;5.00;;;17.50;99.90;;;;;;4959227;29;20746;-65
2023/07/28 06:06:50;;;;;;;5.53;5.03;;;17.50;99.90;;;;;;4959109;28;20582;-65
2023/07/28 06:09:17;;;;;;;8.90;6.00;;;17.50;99.90;;;;;;4960236;28;20961;-65
2023/07/28 06:11:45;;;;;;;6.83;6.13;;;17.50;99.90;;;;;;4959245;29;20502;-64
2023/07/28 06:14:12;;;;;;;7.10;6.40;;;17.50;99.90;;;;;;4958826;28;20553;-66
2023/07/28 06:16:39;;;;;;;6.27;5.63;;;17.60;99.90;;;;;;4958886;29;20551;-66
2023/07/28 06:19:08;;;;;;;7.50;6.47;;;17.50;99.90;;;;;;4958877;29;20958;-63
2023/07/28 06:21:35;;;;;;;6.43;5.83;;;17.50;99.90;;;;;;4957717;28;20470;-65
2023/07/28 06:24:03;;;;;;;6.53;5.30;;;17.60;99.90;;;;;;4957966;29;20475;-66
2023/07/28 06:26:30;;;;;;;8.23;5.27;;;17.60;99.90;;;;;;4958714;28;20502;-69
2023/07/28 06:28:58;;;;;;;5.90;5.10;;;17.60;99.90;;;;;;4958258;29;20445;-65
2023/07/28 06:31:25;;;;;;;6.30;5.70;;;17.60;99.90;;;;;;4958460;29;20451;-64
2023/07/28 06:33:52;;;;;;;5.67;5.17;;;17.70;99.90;;;;;;4959280;28;20466;-65
2023/07/28 06:36:21;;;;;;;7.37;6.30;;;17.60;99.90;;;;;;4966956;28;20466;-64
2023/07/28 06:38:50;;;;;;;6.40;5.80;;;17.70;99.90;;;;;;4970141;28;20763;-64
2023/07/28 06:41:17;;;;;;;6.20;5.60;;;17.80;99.90;;;;;;4969841;28;20523;-65
2023/07/28 06:43:44;;;;;;;5.67;5.13;;;17.80;99.90;;;;;;4969257;28;20462;-67
2023/07/28 06:46:11;;;;;;;5.57;5.07;;;17.70;99.90;;;;;;4961600;28;20762;-66
2023/07/28 06:48:38;;;;;;;6.20;5.60;;;17.80;99.90;;;;;;4968033;28;20935;-65
2023/07/28 06:51:06;;;;;;;5.30;4.80;;;17.80;99.90;;;;;;4972393;28;20736;-65
2023/07/28 06:53:34;;;;;;;6.10;4.77;;;17.90;99.90;;;;;;4972634;28;20462;-63
2023/07/28 06:56:02;;;;;;;5.67;5.10;;;17.80;99.90;;;;;;4971629;28;20433;-66
2023/07/28 06:58:29;;;;;;;7.23;5.47;;;17.80;99.90;;;;;;4969817;28;20520;-66
2023/07/28 07:00:58;;;;;;;5.10;4.60;;;17.70;99.90;;;;;;4969885;28;20879;-64
2023/07/28 07:03:25;;;;;;;6.23;4.90;;;17.70;99.90;;;;;;4971001;28;20452;-66
2023/07/28 07:05:52;;;;;;;6.30;4.77;;;17.80;99.90;;;;;;4967685;28;20469;-65
2023/07/28 07:08:19;;;;;;;6.90;6.20;;;17.80;99.90;;;;;;4966370;28;20470;-64
2023/07/28 07:10:51;;;;;;;6.60;5.90;;;17.80;99.90;;;;;;4967282;28;20470;-65
2023/07/28 07:13:18;;;;;;;6.50;5.23;;;17.70;99.90;;;;;;4972246;28;20436;-65
2023/07/28 07:15:46;;;;;;;7.00;6.10;;;17.70;99.90;;;;;;4977615;28;20539;-65
2023/07/28 07:18:13;;;;;;;7.10;5.80;;;17.80;99.90;;;;;;4963089;28;20919;-70
2023/07/28 07:20:41;;;;;;;8.00;5.67;;;17.80;99.90;;;;;;4961976;29;20868;-65
2023/07/28 07:23:08;;;;;;;5.53;5.03;;;17.80;99.90;;;;;;4961707;28;20906;-66
2023/07/28 07:25:36;;;;;;;7.07;5.50;;;17.90;99.90;;;;;;4961620;28;20502;-67
2023/07/28 07:28:06;;;;;;;5.90;5.30;;;17.90;99.90;;;;;;4960965;28;20581;-66
2023/07/28 07:30:34;;;;;;;6.20;5.50;;;18.00;99.90;;;;;;4961709;28;20517;-66
2023/07/28 07:33:01;;;;;;;5.87;5.37;;;18.00;99.90;;;;;;4961434;28;20747;-66
2023/07/28 07:35:29;;;;;;;6.53;5.40;;;18.10;99.90;;;;;;4961212;29;20545;-65
2023/07/28 07:37:56;;;;;;;5.67;5.17;;;18.20;99.90;;;;;;4976096;28;20764;-66
2023/07/28 07:40:24;;;;;;;5.27;4.77;;;18.30;99.90;;;;;;4964257;28;20984;-65
2023/07/28 07:42:51;;;;;;;5.00;4.50;;;18.40;99.90;;;;;;4961196;29;20442;-64
2023/07/28 07:45:20;;;;;;;5.80;4.77;;;18.50;99.90;;;;;;4960775;28;20513;-64
2023/07/28 07:47:48;;;;;;;4.93;4.43;;;18.30;99.90;;;;;;4961666;28;20587;-63
2023/07/28 07:50:15;;;;;;;4.03;3.07;;;18.40;99.90;;;;;;4973213;28;20509;-65
2023/07/28 07:52:45;;;;;;;4.80;4.00;;;18.30;99.90;;;;;;4960796;28;20462;-64
2023/07/28 07:55:12;;;;;;;3.60;3.30;;;18.30;99.90;;;;;;4961233;29;20553;-64
2023/07/28 07:57:39;;;;;;;4.50;3.87;;;18.50;99.90;;;;;;4961266;29;20743;-65
2023/07/28 08:00:08;;;;;;;5.07;4.57;;;18.40;99.90;;;;;;4962356;28;20855;-65
2023/07/28 08:02:37;;;;;;;5.10;4.60;;;18.40;99.90;;;;;;4965936;28;20473;-66
2023/07/28 08:05:05;;;;;;;5.50;4.83;;;18.60;99.90;;;;;;4960314;29;20872;-67
2023/07/28 08:07:32;;;;;;;7.73;4.37;;;18.60;99.90;;;;;;4960183;28;20609;-65
2023/07/28 08:10:00;;;;;;;5.47;4.97;;;18.50;99.90;;;;;;4959962;28;20467;-64
2023/07/28 08:12:28;;;;;;;4.73;4.23;;;18.70;99.90;;;;;;4959525;29;20939;-63
2023/07/28 08:14:55;;;;;;;6.40;4.10;;;18.80;99.90;;;;;;4958869;29;20883;-63
2023/07/28 08:17:22;;;;;;;5.00;4.07;;;18.90;99.90;;;;;;4958829;29;20467;-62
2023/07/28 08:19:51;;;;;;;4.00;3.60;;;18.90;99.90;;;;;;4958262;28;20533;-63
2023/07/28 08:22:18;;;;;;;3.20;2.87;;;18.90;99.90;;;;;;4955843;28;20516;-62
2023/07/28 08:24:46;;;;;;;4.40;2.67;;;19.10;99.90;;;;;;4955222;29;20471;-64
2023/07/28 08:27:13;;;;;;;4.07;2.57;;;19.10;99.90;;;;;;4957238;28;20491;-64
2023/07/28 08:29:41;;;;;;;2.97;2.50;;;19.00;99.90;;;;;;4973452;28;20469;-64
2023/07/28 08:32:09;;;;;;;3.73;2.93;;;19.10;99.90;;;;;;4969561;28;20753;-64
2023/07/28 08:34:36;;;;;;;4.20;3.00;;;19.20;99.90;;;;;;4958913;28;20446;-63
2023/07/28 08:37:05;;;;;;;3.57;3.07;;;19.30;99.90;;;;;;4960114;28;20902;-64
2023/07/28 08:39:34;;;;;;;4.83;4.33;;;19.30;99.90;;;;;;4972725;28;20908;-65
2023/07/28 08:42:02;;;;;;;4.63;4.00;;;19.20;99.90;;;;;;4979178;28;20779;-66
2023/07/28 08:44:32;;;;;;;4.90;4.40;;;19.30;99.90;;;;;;4979018;28;20472;-65
2023/07/28 08:47:03;;;;;;;5.10;4.60;;;19.40;99.90;;;;;;4978352;28;20501;-64
2023/07/28 08:49:32;;;;;;;5.03;4.63;;;19.40;99.90;;;;;;4959367;28;20448;-63
2023/07/28 08:52:01;;;;;;;5.40;4.90;;;19.30;99.90;;;;;;4958092;28;20485;-62
2023/07/28 08:54:30;;;;;;;5.80;5.20;;;19.30;99.90;;;;;;4975846;28;20463;-65
2023/07/28 08:56:59;;;;;;;5.63;5.13;;;19.30;99.90;;;;;;4959190;28;20550;-62
2023/07/28 08:59:30;;;;;;;6.17;5.67;;;19.20;99.90;;;;;;4959928;29;20549;-65
2023/07/28 09:01:59;;;;;;;6.67;6.13;;;19.10;99.90;;;;;;4959521;28;20471;-65
2023/07/28 09:04:27;;;;;;;8.60;7.47;;;18.90;99.90;;;;;;4959414;29;20562;-65
2023/07/28 09:06:55;;;;;;;7.40;6.70;;;19.10;99.90;;;;;;4959442;28;20499;-66
2023/07/28 09:09:23;;;;;;;7.50;6.80;;;19.10;99.90;;;;;;4959413;29;20885;-64
2023/07/28 09:11:54;;;;;;;7.50;6.80;;;19.20;99.90;;;;;;4959336;29;20904;-67
2023/07/28 09:14:24;;;;;;;7.97;7.27;;;19.20;99.90;;;;;;4959196;28;20466;-64
2023/07/28 09:16:52;;;;;;;8.97;8.07;;;19.20;99.90;;;;;;4959727;28;20463;-65
2023/07/28 09:19:21;;;;;;;9.00;8.20;;;19.10;99.90;;;;;;4959646;28;20912;-65
2023/07/28 09:22:00;;;;;;;8.30;7.50;;;19.10;99.90;;;;;;4958884;28;20549;-62
2023/07/28 09:24:32;;;;;;;9.53;8.73;;;19.10;99.90;;;;;;4958994;28;20859;-66
2023/07/28 09:27:02;;;;;;;9.73;8.60;;;19.10;99.90;;;;;;4959258;29;20833;-68
2023/07/28 09:29:29;;;;;;;10.80;9.87;;;19.10;99.90;;;;;;4959281;29;20894;-64
2023/07/28 09:32:08;;;;;;;11.60;10.60;;;19.00;99.90;;;;;;4959489;29;20553;-64
2023/07/28 09:34:36;;;;;;;10.37;9.47;;;19.00;99.90;;;;;;4959105;29;20471;-65
2023/07/28 09:37:09;;;;;;;12.27;11.17;;;18.90;99.90;;;;;;4958886;28;20506;-63
2023/07/28 09:39:38;;;;;;;12.10;11.00;;;19.00;99.90;;;;;;4959108;28;20562;-65
2023/07/28 09:42:10;;;;;;;13.60;12.20;;;18.90;99.90;;;;;;4961065;28;20482;-63
2023/07/28 09:44:37;;;;;;;11.33;10.23;;;18.90;99.90;;;;;;4976504;28;20532;-64
2023/07/28 09:47:06;;;;;;;11.70;10.50;;;18.90;99.90;;;;;;4978171;28;20468;-66
2023/07/28 09:49:37;;;;;;;11.40;10.30;;;18.80;99.90;;;;;;4978682;28;20501;-65
2023/07/28 09:52:07;;;;;;;11.20;10.20;;;18.90;99.90;;;;;;4978126;28;20469;-59
2023/07/28 09:54:39;;;;;;;10.27;8.20;;;18.90;99.90;;;;;;4969269;28;20865;-59
2023/07/28 09:57:12;;;;;;;11.00;10.00;;;19.00;99.90;;;;;;4958895;29;20557;-59
2023/07/28 09:59:41;;;;;;;10.20;9.20;;;19.20;99.90;;;;;;4959333;28;20537;-61
2023/07/28 10:02:09;;;;;;;9.27;8.47;;;19.50;99.90;;;;;;4958473;29;20466;-60
2023/07/28 10:04:37;;;;;;;8.43;7.63;;;19.70;99.90;;;;;;4958924;28;20773;-61
2023/07/28 10:07:07;;;;;;;8.83;8.03;;;19.80;99.90;;;;;;4958621;29;20473;-60
2023/07/28 10:09:37;;;;;;;7.27;6.57;;;19.90;99.90;;;;;;4964996;28;20537;-60
2023/07/28 10:12:05;;;;;;;8.80;7.90;;;20.00;99.90;;;;;;4966228;28;20466;-60
2023/07/28 10:14:37;;;;;;;8.83;8.00;;;19.90;99.90;;;;;;4974072;28;20533;-60
2023/07/28 10:17:06;;;;;;;9.43;8.63;;;19.80;99.90;;;;;;4965866;28;20521;-60
2023/07/28 10:19:36;;;;;;;9.70;8.90;;;19.80;99.90;;;;;;4971639;28;20470;-61
2023/07/28 10:22:10;;;;;;;10.67;9.67;;;19.90;99.90;;;;;;4968749;28;20466;-61
2023/07/28 10:24:54;;;;;;;9.93;9.03;;;19.80;99.90;;;;;;4971946;28;20441;-61
2023/07/28 10:27:39;;;;;;;9.23;8.47;;;19.70;99.90;;;;;;4977502;28;20489;-61
2023/07/28 10:30:13;;;;;;;8.80;8.10;;;19.60;99.90;;;;;;4982685;28;20769;-61
2023/07/28 10:32:42;;;;;;;8.90;8.20;;;19.80;99.90;;;;;;4983394;28;20953;-61
2023/07/28 10:35:24;;;;;;;8.53;7.30;;;19.90;99.90;;;;;;4984190;28;20474;-61
2023/07/28 10:37:51;;;;;;;7.93;7.23;;;20.10;99.90;;;;;;4984188;28;20466;-61
2023/07/28 10:40:29;;;;;;;7.03;6.43;;;20.30;99.90;;;;;;4984651;28;20466;-59
2023/07/28 10:42:57;;;;;;;5.90;5.40;;;20.60;99.90;;;;;;4984339;28;20473;-59
2023/07/28 10:45:29;;;;;;;5.97;5.47;;;20.80;99.90;;;;;;4984066;28;20520;-59
2023/07/28 10:47:59;;;;;;;5.57;5.10;;;21.00;99.90;;;;;;4982792;28;20501;-59
2023/07/28 10:50:28;;;;;;;6.13;5.53;;;21.40;99.90;;;;;;4984061;28;20465;-59
2023/07/28 10:52:56;;;;;;;5.10;4.70;;;21.50;99.90;;;;;;4984281;28;20465;-58
2023/07/28 10:55:25;;;;;;;5.33;4.20;;;21.50;99.90;;;;;;4977834;28;20473;-59
2023/07/28 10:57:53;;;;;;;4.87;4.37;;;21.50;99.90;;;;;;4964297;28;20546;-58
2023/07/28 11:00:23;;;;;;;5.77;5.37;;;21.80;99.90;;;;;;4963829;28;20557;-58
2023/07/28 11:02:54;;;;;;;5.53;5.00;;;22.10;99.90;;;;;;4963902;28;20471;-58
2023/07/28 11:05:23;;;;;;;5.73;5.33;;;22.40;99.90;;;;;;4964991;28;20474;-58
2023/07/28 11:07:51;;;;;;;7.13;4.87;;;22.70;99.90;;;;;;4964661;28;20498;-58
2023/07/28 11:10:20;;;;;;;5.03;4.60;;;22.80;99.90;;;;;;4964585;28;20573;-58
2023/07/28 11:12:50;;;;;;;6.80;4.50;;;22.80;1.00;;;;;;4964777;28;20573;-58
2023/07/28 11:15:18;;;;;;;6.60;4.40;;;23.00;99.90;;;;;;4965009;28;20561;-58
2023/07/28 11:17:49;;;;;;;4.30;3.90;;;23.10;1.00;;;;;;4962709;29;20486;-59
2023/07/28 11:20:19;;;;;;;4.00;3.33;;;23.40;1.00;;;;;;4962568;28;20503;-58
2023/07/28 11:22:48;;;;;;;5.37;4.87;;;23.50;99.90;;;;;;4976818;28;20475;-60
2023/07/28 11:25:15;;;;;;;4.90;4.10;;;23.40;99.90;;;;;;4971159;28;21028;-59
2023/07/28 11:27:43;;;;;;;3.50;3.20;;;23.10;99.90;;;;;;4960343;29;20518;-58
2023/07/28 11:30:13;;;;;;;4.23;3.83;;;22.90;99.90;;;;;;4959065;29;20444;-58
2023/07/28 11:32:40;;;;;;;4.33;4.03;;;22.70;99.90;;;;;;4960794;28;20463;-58
2023/07/28 11:35:09;;;;;;;4.37;3.97;;;22.30;99.90;;;;;;4961102;29;20463;-59
2023/07/28 11:37:40;;;;;;;7.43;4.30;;;21.90;1.00;;;;;;4966471;28;20937;-59
2023/07/28 11:40:10;;;;;;;4.30;4.00;;;21.70;95.40;;;;;;4963496;28;20465;-59
2023/07/28 11:42:39;;;;;;;5.07;4.30;;;21.50;1.00;;;;;;4960866;28;20467;-60
2023/07/28 11:45:08;;;;;;;6.63;4.00;;;21.60;1.00;;;;;;4960067;28;20583;-59
2023/07/28 11:47:35;;;;;;;3.50;3.20;;;21.70;99.90;;;;;;4958878;28;20954;-60
2023/07/28 11:50:04;;;;;;;5.73;4.20;;;22.00;17.00;;;;;;4959195;28;20819;-60
2023/07/28 11:52:32;;;;;;;4.07;3.70;;;22.30;1.00;;;;;;4959122;29;20469;-59
2023/07/28 11:55:02;;;;;;;3.03;2.60;;;22.30;1.00;;;;;;4959591;28;20463;-59
2023/07/28 11:57:32;;;;;;;2.97;2.67;;;22.50;1.00;;;;;;4959652;29;20561;-59
2023/07/28 12:00:00;;;;;;;2.40;2.13;;;22.80;99.90;;;;;;4959692;28;20471;-58
2023/07/28 12:02:28;;;;;;;3.20;2.90;;;23.10;1.00;;;;;;4959710;29;20467;-58
2023/07/28 12:04:56;;;;;;;3.47;2.70;;;22.70;99.90;;;;;;4960871;28;20574;-58
2023/07/28 12:07:30;;;;;;;2.50;2.30;;;22.40;99.90;;;;;;4962006;28;20474;-60
2023/07/28 12:09:59;;;;;;;2.80;2.40;;;22.40;1.00;;;;;;4961911;28;20485;-58
2023/07/28 12:12:29;;;;;;;3.90;2.57;;;22.20;1.00;;;;;;4958591;28;20502;-59
2023/07/28 12:14:59;;;;;;;3.30;2.43;;;22.20;1.00;;;;;;4959448;29;20466;-58
2023/07/28 12:17:28;;;;;;;2.47;2.13;;;22.40;1.00;;;;;;4959151;28;20549;-58
2023/07/28 12:20:10;;;;;;;2.63;2.43;;;22.70;99.90;;;;;;4960041;28;20458;-58
2023/07/28 12:22:38;;;;;;;4.10;2.47;;;23.30;99.90;;;;;;4960791;28;20467;-58
2023/07/28 12:25:06;;;;;;;2.30;2.10;;;23.80;99.90;;;;;;4960752;29;20466;-58
2023/07/28 12:27:35;;;;;;;3.00;2.70;;;24.00;1.00;;;;;;4960774;29;20467;-57
2023/07/28 12:30:03;;;;;;;3.53;2.03;;;24.10;1.00;;;;;;4960026;29;20494;-57
2023/07/28 12:32:31;;;;;;;5.57;3.00;;;24.40;29.30;;;;;;4959288;28;20561;-58
2023/07/28 12:34:58;;;;;;;2.53;2.03;;;24.40;1.00;;;;;;4960299;28;20491;-58
2023/07/28 12:37:25;;;;;;;2.27;2.03;;;24.30;1.00;;;;;;4960228;28;20467;-56
2023/07/28 12:39:53;;;;;;;3.07;2.77;;;24.20;1.00;;;;;;4960204;29;20889;-57
2023/07/28 12:42:20;;;;;;;2.40;2.20;;;24.10;1.00;;;;;;4960065;28;20469;-58
2023/07/28 12:44:49;;;;;;;3.30;3.00;;;23.60;1.00;;;;;;4959970;28;20470;-57
2023/07/28 12:47:16;;;;;;;3.03;2.63;;;23.20;33.70;;;;;;4960578;29;20462;-57
2023/07/28 12:49:44;;;;;;;3.27;2.70;;;22.90;99.90;;;;;;4959338;28;20502;-58
2023/07/28 12:52:11;;;;;;;3.20;2.90;;;23.00;99.90;;;;;;4959755;29;20470;-58